sensor_id;sensor_type;location;lat;lon;timestamp;pressure;altitude;pressure_sealevel;temperature;humidity
72285;BME280;60220;53.552;10.092;2023-05-03T00:00:38;102575.84;;;8.10;57.51
72285;BME280;60220;53.552;10.092;2023-05-03T00:03:05;102565.09;;;7.99;59.03
72285;BME280;60220;53.552;10.092;2023-05-03T00:05:34;102572.31;;;8.09;58.57
72285;BME280;60220;53.552;10.092;2023-05-03T00:08:02;102571.81;;;8.57;57.75
72285;BME280;60220;53.552;10.092;2023-05-03T00:10:29;102574.13;;;8.79;56.93
72285;BME280;60220;53.552;10.092;2023-05-03T00:12:56;102568.03;;;8.80;57.12
72285;BME280;60220;53.552;10.092;2023-05-03T00:15:23;102568.28;;;8.20;57.27
72285;BME280;60220;53.552;10.092;2023-05-03T00:17:49;102570.59;;;8.43;57.38
72285;BME280;60220;53.552;10.092;2023-05-03T00:20:17;102571.69;;;8.51;57.41
72285;BME280;60220;53.552;10.092;2023-05-03T00:22:44;102566.56;;;8.55;57.35
72285;BME280;60220;53.552;10.092;2023-05-03T00:25:13;102564.78;;;8.54;57.15
72285;BME280;60220;53.552;10.092;2023-05-03T00:27:40;102560.78;;;8.34;58.18
72285;BME280;60220;53.552;10.092;2023-05-03T00:30:07;102564.47;;;9.16;56.14
72285;BME280;60220;53.552;10.092;2023-05-03T00:32:37;102560.84;;;8.36;57.50
72285;BME280;60220;53.552;10.092;2023-05-03T00:35:07;102571.66;;;8.85;55.85
72285;BME280;60220;53.552;10.092;2023-05-03T00:37:35;102574.22;;;8.48;56.53
72285;BME280;60220;53.552;10.092;2023-05-03T00:40:03;102565.13;;;8.68;56.87
72285;BME280;60220;53.552;10.092;2023-05-03T00:42:32;102570.31;;;8.31;57.65
72285;BME280;60220;53.552;10.092;2023-05-03T00:44:59;102572.16;;;8.35;58.31
72285;BME280;60220;53.552;10.092;2023-05-03T00:47:29;102570.19;;;8.28;57.74
72285;BME280;60220;53.552;10.092;2023-05-03T00:49:58;102571.06;;;8.61;58.30
72285;BME280;60220;53.552;10.092;2023-05-03T00:52:25;102570.75;;;8.85;56.81
72285;BME280;60220;53.552;10.092;2023-05-03T00:54:52;102569.47;;;8.33;58.18
72285;BME280;60220;53.552;10.092;2023-05-03T00:57:19;102575.53;;;8.31;59.05
72285;BME280;60220;53.552;10.092;2023-05-03T00:59:48;102576.09;;;8.53;58.22
72285;BME280;60220;53.552;10.092;2023-05-03T01:02:15;102568.44;;;8.61;57.37
72285;BME280;60220;53.552;10.092;2023-05-03T01:04:41;102570.03;;;8.21;59.57
72285;BME280;60220;53.552;10.092;2023-05-03T01:07:22;102565.34;;;8.41;58.38
72285;BME280;60220;53.552;10.092;2023-05-03T01:09:59;102565.25;;;8.37;58.35
72285;BME280;60220;53.552;10.092;2023-05-03T01:12:36;102571.91;;;8.97;57.86
72285;BME280;60220;53.552;10.092;2023-05-03T01:15:13;102567.44;;;8.21;58.07
72285;BME280;60220;53.552;10.092;2023-05-03T01:17:47;102572.44;;;8.14;59.93
72285;BME280;60220;53.552;10.092;2023-05-03T01:20:16;102574.78;;;8.03;60.23
72285;BME280;60220;53.552;10.092;2023-05-03T01:22:49;102572.28;;;7.75;61.37
72285;BME280;60220;53.552;10.092;2023-05-03T01:25:25;102573.78;;;7.67;60.97
72285;BME280;60220;53.552;10.092;2023-05-03T01:27:55;102585.34;;;8.06;61.25
72285;BME280;60220;53.552;10.092;2023-05-03T01:30:22;102585.28;;;8.38;60.24
72285;BME280;60220;53.552;10.092;2023-05-03T01:32:57;102586.94;;;8.01;60.49
72285;BME280;60220;53.552;10.092;2023-05-03T01:35:32;102587.41;;;8.19;60.30
72285;BME280;60220;53.552;10.092;2023-05-03T01:38:04;102584.94;;;7.91;60.70
72285;BME280;60220;53.552;10.092;2023-05-03T01:40:38;102585.38;;;7.76;59.99
72285;BME280;60220;53.552;10.092;2023-05-03T01:43:07;102588.16;;;7.53;61.72
72285;BME280;60220;53.552;10.092;2023-05-03T01:45:35;102587.34;;;7.54;62.51
72285;BME280;60220;53.552;10.092;2023-05-03T01:48:03;102586.59;;;7.89;61.66
72285;BME280;60220;53.552;10.092;2023-05-03T01:50:34;102588.66;;;7.69;61.96
72285;BME280;60220;53.552;10.092;2023-05-03T01:53:00;102593.19;;;8.08;60.73
72285;BME280;60220;53.552;10.092;2023-05-03T01:55:27;102599.81;;;7.64;61.77
72285;BME280;60220;53.552;10.092;2023-05-03T01:57:55;102584.41;;;7.73;61.90
72285;BME280;60220;53.552;10.092;2023-05-03T02:00:22;102588.56;;;7.96;61.24
72285;BME280;60220;53.552;10.092;2023-05-03T02:02:50;102592.94;;;7.66;61.60
72285;BME280;60220;53.552;10.092;2023-05-03T02:05:17;102597.59;;;7.48;62.78
72285;BME280;60220;53.552;10.092;2023-05-03T02:07:44;102596.38;;;7.35;63.07
72285;BME280;60220;53.552;10.092;2023-05-03T02:10:10;102593.44;;;7.24;63.30
72285;BME280;60220;53.552;10.092;2023-05-03T02:12:39;102597.06;;;7.29;63.29
72285;BME280;60220;53.552;10.092;2023-05-03T02:15:08;102601.53;;;7.33;62.49
72285;BME280;60220;53.552;10.092;2023-05-03T02:17:35;102602.78;;;7.16;63.08
72285;BME280;60220;53.552;10.092;2023-05-03T02:20:02;102599.41;;;7.20;63.10
72285;BME280;60220;53.552;10.092;2023-05-03T02:22:31;102609.81;;;7.19;63.71
72285;BME280;60220;53.552;10.092;2023-05-03T02:25:00;102603.63;;;7.75;62.97
72285;BME280;60220;53.552;10.092;2023-05-03T02:27:30;102609.66;;;8.35;60.13
72285;BME280;60220;53.552;10.092;2023-05-03T02:29:59;102603.59;;;8.36;60.81
72285;BME280;60220;53.552;10.092;2023-05-03T02:32:29;102610.06;;;7.88;63.96
72285;BME280;60220;53.552;10.092;2023-05-03T02:34:56;102614.19;;;8.42;60.77
72285;BME280;60220;53.552;10.092;2023-05-03T02:37:23;102616.03;;;8.13;61.54
72285;BME280;60220;53.552;10.092;2023-05-03T02:39:49;102615.97;;;8.12;62.37
72285;BME280;60220;53.552;10.092;2023-05-03T02:42:16;102618.88;;;8.22;60.13
72285;BME280;60220;53.552;10.092;2023-05-03T02:44:42;102618.25;;;8.64;59.46
72285;BME280;60220;53.552;10.092;2023-05-03T02:47:10;102621.19;;;8.76;59.15
72285;BME280;60220;53.552;10.092;2023-05-03T02:49:41;102619.06;;;9.35;58.20
72285;BME280;60220;53.552;10.092;2023-05-03T02:52:07;102613.81;;;8.96;57.94
72285;BME280;60220;53.552;10.092;2023-05-03T02:54:36;102615.69;;;8.67;59.88
72285;BME280;60220;53.552;10.092;2023-05-03T02:57:03;102617.22;;;8.93;59.42
72285;BME280;60220;53.552;10.092;2023-05-03T02:59:30;102615.75;;;9.04;59.70
72285;BME280;60220;53.552;10.092;2023-05-03T03:01:57;102613.75;;;9.33;58.57
72285;BME280;60220;53.552;10.092;2023-05-03T03:04:26;102622.66;;;9.40;57.89
72285;BME280;60220;53.552;10.092;2023-05-03T03:06:54;102614.94;;;9.46;58.44
72285;BME280;60220;53.552;10.092;2023-05-03T03:09:22;102624.94;;;9.25;56.98
72285;BME280;60220;53.552;10.092;2023-05-03T03:11:49;102617.13;;;9.26;57.63
72285;BME280;60220;53.552;10.092;2023-05-03T03:14:16;102622.75;;;9.44;57.49
72285;BME280;60220;53.552;10.092;2023-05-03T03:16:44;102619.34;;;9.48;57.94
72285;BME280;60220;53.552;10.092;2023-05-03T03:19:13;102620.38;;;9.55;57.45
72285;BME280;60220;53.552;10.092;2023-05-03T03:21:40;102619.56;;;8.81;59.99
72285;BME280;60220;53.552;10.092;2023-05-03T03:24:10;102625.13;;;8.28;61.91
72285;BME280;60220;53.552;10.092;2023-05-03T03:26:36;102617.31;;;8.60;61.38
72285;BME280;60220;53.552;10.092;2023-05-03T03:29:03;102619.56;;;9.19;59.20
72285;BME280;60220;53.552;10.092;2023-05-03T03:31:30;102623.69;;;9.48;59.00
72285;BME280;60220;53.552;10.092;2023-05-03T03:33:58;102618.13;;;9.33;59.50
72285;BME280;60220;53.552;10.092;2023-05-03T03:36:25;102611.34;;;8.66;60.77
72285;BME280;60220;53.552;10.092;2023-05-03T03:38:53;102625.00;;;8.90;60.41
72285;BME280;60220;53.552;10.092;2023-05-03T03:41:23;102617.50;;;9.44;59.19
72285;BME280;60220;53.552;10.092;2023-05-03T03:43:50;102618.34;;;9.04;59.26
72285;BME280;60220;53.552;10.092;2023-05-03T03:46:16;102618.56;;;8.76;60.46
72285;BME280;60220;53.552;10.092;2023-05-03T03:48:43;102624.72;;;8.44;61.93
72285;BME280;60220;53.552;10.092;2023-05-03T03:51:10;102614.22;;;9.14;60.62
72285;BME280;60220;53.552;10.092;2023-05-03T03:53:36;102618.09;;;8.58;61.93
72285;BME280;60220;53.552;10.092;2023-05-03T03:56:06;102617.44;;;9.02;60.74
72285;BME280;60220;53.552;10.092;2023-05-03T03:58:34;102617.63;;;8.40;62.10
72285;BME280;60220;53.552;10.092;2023-05-03T04:01:01;102619.84;;;8.93;61.64
72285;BME280;60220;53.552;10.092;2023-05-03T04:03:30;102610.72;;;8.78;60.40
72285;BME280;60220;53.552;10.092;2023-05-03T04:05:58;102613.44;;;9.18;61.00
72285;BME280;60220;53.552;10.092;2023-05-03T04:08:24;102612.44;;;8.41;62.44
72285;BME280;60220;53.552;10.092;2023-05-03T04:10:53;102606.75;;;8.93;61.24
72285;BME280;60220;53.552;10.092;2023-05-03T04:13:20;102615.00;;;8.74;64.11
72285;BME280;60220;53.552;10.092;2023-05-03T04:15:48;102615.97;;;8.42;65.56
72285;BME280;60220;53.552;10.092;2023-05-03T04:18:15;102610.25;;;8.58;64.82
72285;BME280;60220;53.552;10.092;2023-05-03T04:20:44;102621.31;;;8.48;64.56
72285;BME280;60220;53.552;10.092;2023-05-03T04:23:10;102614.91;;;8.35;64.38
72285;BME280;60220;53.552;10.092;2023-05-03T04:25:42;102618.03;;;8.55;63.19
72285;BME280;60220;53.552;10.092;2023-05-03T04:28:11;102617.31;;;8.96;63.03
72285;BME280;60220;53.552;10.092;2023-05-03T04:30:41;102619.19;;;9.41;62.22
72285;BME280;60220;53.552;10.092;2023-05-03T04:33:10;102616.69;;;8.72;63.04
72285;BME280;60220;53.552;10.092;2023-05-03T04:35:38;102625.28;;;9.02;62.33
72285;BME280;60220;53.552;10.092;2023-05-03T04:38:04;102628.34;;;8.49;65.23
72285;BME280;60220;53.552;10.092;2023-05-03T04:40:31;102632.78;;;8.53;65.60
72285;BME280;60220;53.552;10.092;2023-05-03T04:42:59;102630.28;;;8.56;64.63
72285;BME280;60220;53.552;10.092;2023-05-03T04:45:25;102634.75;;;8.97;63.15
72285;BME280;60220;53.552;10.092;2023-05-03T04:47:52;102641.22;;;9.12;62.24
72285;BME280;60220;53.552;10.092;2023-05-03T04:50:20;102639.69;;;9.60;61.68
72285;BME280;60220;53.552;10.092;2023-05-03T04:52:47;102643.81;;;9.89;60.52
72285;BME280;60220;53.552;10.092;2023-05-03T04:55:14;102655.16;;;9.48;61.77
72285;BME280;60220;53.552;10.092;2023-05-03T04:57:43;102650.00;;;9.51;61.37
72285;BME280;60220;53.552;10.092;2023-05-03T05:00:11;102655.69;;;9.33;61.64
72285;BME280;60220;53.552;10.092;2023-05-03T05:02:38;102656.66;;;9.77;60.47
72285;BME280;60220;53.552;10.092;2023-05-03T05:05:06;102658.69;;;9.50;61.60
72285;BME280;60220;53.552;10.092;2023-05-03T05:07:35;102660.69;;;9.60;62.40
72285;BME280;60220;53.552;10.092;2023-05-03T05:10:01;102661.00;;;9.75;61.33
72285;BME280;60220;53.552;10.092;2023-05-03T05:12:30;102666.00;;;9.65;60.69
72285;BME280;60220;53.552;10.092;2023-05-03T05:14:59;102659.03;;;10.09;59.71
72285;BME280;60220;53.552;10.092;2023-05-03T05:17:26;102668.44;;;9.96;60.92
72285;BME280;60220;53.552;10.092;2023-05-03T05:19:52;102665.69;;;9.90;60.83
72285;BME280;60220;53.552;10.092;2023-05-03T05:22:19;102665.44;;;10.20;58.93
72285;BME280;60220;53.552;10.092;2023-05-03T05:24:48;102668.69;;;10.11;59.49
72285;BME280;60220;53.552;10.092;2023-05-03T05:27:14;102669.41;;;10.46;57.51
72285;BME280;60220;53.552;10.092;2023-05-03T05:29:43;102678.44;;;10.60;56.16
72285;BME280;60220;53.552;10.092;2023-05-03T05:32:12;102671.78;;;10.32;57.78
72285;BME280;60220;53.552;10.092;2023-05-03T05:34:42;102667.13;;;10.18;58.19
72285;BME280;60220;53.552;10.092;2023-05-03T05:37:12;102679.75;;;10.37;57.40
72285;BME280;60220;53.552;10.092;2023-05-03T05:39:38;102678.72;;;10.75;55.47
72285;BME280;60220;53.552;10.092;2023-05-03T05:42:09;102686.25;;;10.14;58.64
72285;BME280;60220;53.552;10.092;2023-05-03T05:44:38;102686.38;;;9.78;58.88
72285;BME280;60220;53.552;10.092;2023-05-03T05:47:05;102687.16;;;10.59;57.65
72285;BME280;60220;53.552;10.092;2023-05-03T05:49:32;102680.03;;;10.09;57.62
72285;BME280;60220;53.552;10.092;2023-05-03T05:51:58;102689.69;;;10.10;57.69
72285;BME280;60220;53.552;10.092;2023-05-03T05:54:26;102690.19;;;10.81;56.64
72285;BME280;60220;53.552;10.092;2023-05-03T05:56:55;102677.63;;;10.64;55.94
72285;BME280;60220;53.552;10.092;2023-05-03T05:59:25;102692.00;;;10.86;57.33
72285;BME280;60220;53.552;10.092;2023-05-03T06:01:53;102692.94;;;10.90;54.90
72285;BME280;60220;53.552;10.092;2023-05-03T06:04:21;102697.44;;;10.47;56.27
72285;BME280;60220;53.552;10.092;2023-05-03T06:06:50;102690.84;;;11.23;54.28
72285;BME280;60220;53.552;10.092;2023-05-03T06:09:17;102695.66;;;11.51;53.50
72285;BME280;60220;53.552;10.092;2023-05-03T06:11:46;102694.63;;;11.40;53.35
72285;BME280;60220;53.552;10.092;2023-05-03T06:14:13;102693.69;;;11.35;52.42
72285;BME280;60220;53.552;10.092;2023-05-03T06:16:43;102699.22;;;11.56;53.64
72285;BME280;60220;53.552;10.092;2023-05-03T06:19:12;102696.50;;;11.49;51.44
72285;BME280;60220;53.552;10.092;2023-05-03T06:21:38;102699.66;;;11.25;52.21
72285;BME280;60220;53.552;10.092;2023-05-03T06:24:05;102702.56;;;10.89;52.06
72285;BME280;60220;53.552;10.092;2023-05-03T06:26:32;102700.78;;;11.42;49.91
72285;BME280;60220;53.552;10.092;2023-05-03T06:29:02;102707.84;;;11.46;49.51
72285;BME280;60220;53.552;10.092;2023-05-03T06:31:29;102700.66;;;11.33;48.41
72285;BME280;60220;53.552;10.092;2023-05-03T06:33:57;102702.66;;;11.49;47.65
72285;BME280;60220;53.552;10.092;2023-05-03T06:36:23;102705.59;;;11.72;47.95
72285;BME280;60220;53.552;10.092;2023-05-03T06:38:52;102705.13;;;10.85;49.22
72285;BME280;60220;53.552;10.092;2023-05-03T06:41:18;102719.41;;;11.02;50.14
72285;BME280;60220;53.552;10.092;2023-05-03T06:43:50;102705.44;;;11.61;48.16
72285;BME280;60220;53.552;10.092;2023-05-03T06:46:19;102707.63;;;11.91;47.09
72285;BME280;60220;53.552;10.092;2023-05-03T06:48:45;102711.50;;;11.54;47.46
72285;BME280;60220;53.552;10.092;2023-05-03T06:51:13;102708.13;;;11.64;48.51
72285;BME280;60220;53.552;10.092;2023-05-03T06:53:40;102714.53;;;11.82;46.91
72285;BME280;60220;53.552;10.092;2023-05-03T06:56:07;102713.84;;;11.36;46.92
72285;BME280;60220;53.552;10.092;2023-05-03T06:58:36;102703.78;;;11.09;47.60
72285;BME280;60220;53.552;10.092;2023-05-03T07:01:02;102706.56;;;11.18;47.55
72285;BME280;60220;53.552;10.092;2023-05-03T07:03:29;102708.06;;;11.03;47.41
72285;BME280;60220;53.552;10.092;2023-05-03T07:05:56;102708.63;;;11.41;47.63
72285;BME280;60220;53.552;10.092;2023-05-03T07:08:24;102714.09;;;11.53;49.59
72285;BME280;60220;53.552;10.092;2023-05-03T07:10:52;102711.31;;;12.05;44.92
72285;BME280;60220;53.552;10.092;2023-05-03T07:13:19;102704.31;;;12.06;44.46
72285;BME280;60220;53.552;10.092;2023-05-03T07:15:46;102714.06;;;11.51;44.61
72285;BME280;60220;53.552;10.092;2023-05-03T07:18:13;102711.63;;;11.08;45.95
72285;BME280;60220;53.552;10.092;2023-05-03T07:20:39;102710.28;;;11.93;45.38
72285;BME280;60220;53.552;10.092;2023-05-03T07:23:06;102715.91;;;11.57;45.22
72285;BME280;60220;53.552;10.092;2023-05-03T07:25:34;102713.66;;;11.83;44.87
72285;BME280;60220;53.552;10.092;2023-05-03T07:28:03;102711.94;;;11.85;45.40
72285;BME280;60220;53.552;10.092;2023-05-03T07:30:30;102719.00;;;11.89;45.59
72285;BME280;60220;53.552;10.092;2023-05-03T07:32:57;102719.31;;;10.94;48.01
72285;BME280;60220;53.552;10.092;2023-05-03T07:35:24;102716.91;;;11.66;46.72
72285;BME280;60220;53.552;10.092;2023-05-03T07:37:52;102719.81;;;11.26;47.43
72285;BME280;60220;53.552;10.092;2023-05-03T07:40:19;102714.13;;;11.56;46.45
72285;BME280;60220;53.552;10.092;2023-05-03T07:42:47;102707.50;;;11.79;46.09
72285;BME280;60220;53.552;10.092;2023-05-03T07:45:14;102711.34;;;12.07;45.61
72285;BME280;60220;53.552;10.092;2023-05-03T07:47:40;102704.81;;;11.78;46.04
72285;BME280;60220;53.552;10.092;2023-05-03T07:50:09;102710.41;;;12.02;45.57
72285;BME280;60220;53.552;10.092;2023-05-03T07:52:36;102698.50;;;12.34;46.70
72285;BME280;60220;53.552;10.092;2023-05-03T07:55:03;102700.41;;;12.50;43.80
72285;BME280;60220;53.552;10.092;2023-05-03T07:57:31;102705.25;;;12.11;44.91
72285;BME280;60220;53.552;10.092;2023-05-03T07:59:59;102710.56;;;12.14;43.28
72285;BME280;60220;53.552;10.092;2023-05-03T08:02:25;102711.69;;;12.34;44.33
72285;BME280;60220;53.552;10.092;2023-05-03T08:04:52;102714.13;;;12.19;45.38
72285;BME280;60220;53.552;10.092;2023-05-03T08:07:19;102712.97;;;11.97;45.48
72285;BME280;60220;53.552;10.092;2023-05-03T08:09:46;102714.25;;;11.63;45.35
72285;BME280;60220;53.552;10.092;2023-05-03T08:12:19;102718.53;;;11.55;46.75
72285;BME280;60220;53.552;10.092;2023-05-03T08:14:45;102723.78;;;11.55;46.20
72285;BME280;60220;53.552;10.092;2023-05-03T08:17:13;102723.75;;;10.98;46.08
72285;BME280;60220;53.552;10.092;2023-05-03T08:19:40;102717.84;;;11.70;45.77
72285;BME280;60220;53.552;10.092;2023-05-03T08:22:10;102722.97;;;11.61;44.94
72285;BME280;60220;53.552;10.092;2023-05-03T08:24:37;102720.78;;;11.90;44.46
72285;BME280;60220;53.552;10.092;2023-05-03T08:27:04;102717.41;;;12.00;43.03
72285;BME280;60220;53.552;10.092;2023-05-03T08:29:32;102721.09;;;11.52;43.86
72285;BME280;60220;53.552;10.092;2023-05-03T08:32:01;102719.03;;;10.79;47.59
72285;BME280;60220;53.552;10.092;2023-05-03T08:34:30;102713.41;;;12.35;45.93
72285;BME280;60220;53.552;10.092;2023-05-03T08:36:57;102714.50;;;12.52;43.74
72285;BME280;60220;53.552;10.092;2023-05-03T08:39:26;102723.31;;;11.82;44.43
72285;BME280;60220;53.552;10.092;2023-05-03T08:41:55;102720.94;;;12.02;45.67
72285;BME280;60220;53.552;10.092;2023-05-03T08:44:28;102729.56;;;11.92;44.56
72285;BME280;60220;53.552;10.092;2023-05-03T08:46:55;102724.88;;;12.40;43.49
72285;BME280;60220;53.552;10.092;2023-05-03T08:49:22;102721.56;;;12.57;42.00
72285;BME280;60220;53.552;10.092;2023-05-03T08:51:51;102722.81;;;10.95;45.48
72285;BME280;60220;53.552;10.092;2023-05-03T08:54:18;102719.81;;;11.26;44.68
72285;BME280;60220;53.552;10.092;2023-05-03T08:56:46;102720.00;;;11.98;43.66
72285;BME280;60220;53.552;10.092;2023-05-03T08:59:13;102729.94;;;12.19;44.60
72285;BME280;60220;53.552;10.092;2023-05-03T09:01:41;102728.38;;;12.35;43.06
72285;BME280;60220;53.552;10.092;2023-05-03T09:04:10;102732.03;;;12.50;43.00
72285;BME280;60220;53.552;10.092;2023-05-03T09:06:37;102732.41;;;12.87;42.77
72285;BME280;60220;53.552;10.092;2023-05-03T09:09:06;102739.53;;;13.00;43.61
72285;BME280;60220;53.552;10.092;2023-05-03T09:11:36;102735.13;;;12.96;42.71
72285;BME280;60220;53.552;10.092;2023-05-03T09:14:10;102730.44;;;12.65;42.60
72285;BME280;60220;53.552;10.092;2023-05-03T09:16:38;102733.09;;;12.65;42.46
72285;BME280;60220;53.552;10.092;2023-05-03T09:19:06;102735.81;;;12.74;43.51
72285;BME280;60220;53.552;10.092;2023-05-03T09:21:34;102735.00;;;12.85;42.58
72285;BME280;60220;53.552;10.092;2023-05-03T09:24:01;102742.66;;;11.84;42.80
72285;BME280;60220;53.552;10.092;2023-05-03T09:26:31;102746.34;;;11.98;43.23
72285;BME280;60220;53.552;10.092;2023-05-03T09:28:59;102754.16;;;11.94;44.29
72285;BME280;60220;53.552;10.092;2023-05-03T09:31:27;102737.28;;;11.22;44.76
72285;BME280;60220;53.552;10.092;2023-05-03T09:33:54;102735.19;;;11.02;44.71
72285;BME280;60220;53.552;10.092;2023-05-03T09:36:21;102748.38;;;11.59;44.34
72285;BME280;60220;53.552;10.092;2023-05-03T09:38:51;102743.72;;;12.00;42.86
72285;BME280;60220;53.552;10.092;2023-05-03T09:41:29;102741.75;;;13.53;41.42
72285;BME280;60220;53.552;10.092;2023-05-03T09:43:57;102734.03;;;13.88;40.10
72285;BME280;60220;53.552;10.092;2023-05-03T09:46:27;102730.56;;;13.93;40.84
72285;BME280;60220;53.552;10.092;2023-05-03T09:48:55;102742.81;;;13.85;40.40
72285;BME280;60220;53.552;10.092;2023-05-03T09:51:23;102744.50;;;13.71;41.24
72285;BME280;60220;53.552;10.092;2023-05-03T09:53:49;102733.28;;;14.13;39.86
72285;BME280;60220;53.552;10.092;2023-05-03T09:56:17;102729.56;;;12.64;42.51
72285;BME280;60220;53.552;10.092;2023-05-03T09:58:46;102724.19;;;12.57;42.95
72285;BME280;60220;53.552;10.092;2023-05-03T10:01:13;102732.06;;;11.24;44.74
72285;BME280;60220;53.552;10.092;2023-05-03T10:03:44;102729.81;;;12.93;43.46
72285;BME280;60220;53.552;10.092;2023-05-03T10:06:19;102722.91;;;13.06;42.63
72285;BME280;60220;53.552;10.092;2023-05-03T10:08:51;102719.56;;;12.34;42.47
72285;BME280;60220;53.552;10.092;2023-05-03T10:11:18;102724.44;;;12.79;42.10
72285;BME280;60220;53.552;10.092;2023-05-03T10:13:50;102723.06;;;13.19;40.99
72285;BME280;60220;53.552;10.092;2023-05-03T10:16:20;102729.28;;;12.41;42.81
72285;BME280;60220;53.552;10.092;2023-05-03T10:18:55;102724.00;;;13.27;42.10
72285;BME280;60220;53.552;10.092;2023-05-03T10:21:46;102712.91;;;12.71;43.55
72285;BME280;60220;53.552;10.092;2023-05-03T10:24:16;102714.31;;;13.25;42.34
72285;BME280;60220;53.552;10.092;2023-05-03T10:26:44;102719.50;;;13.16;42.08
72285;BME280;60220;53.552;10.092;2023-05-03T10:32:30;102710.22;;;13.74;39.68
72285;BME280;60220;53.552;10.092;2023-05-03T10:35:00;102700.81;;;12.90;41.85
72285;BME280;60220;53.552;10.092;2023-05-03T10:37:32;102710.75;;;13.18;43.49
72285;BME280;60220;53.552;10.092;2023-05-03T10:40:08;102714.03;;;12.94;44.89
72285;BME280;60220;53.552;10.092;2023-05-03T10:42:36;102705.16;;;12.83;43.08
72285;BME280;60220;53.552;10.092;2023-05-03T10:45:06;102706.22;;;13.08;41.60
72285;BME280;60220;53.552;10.092;2023-05-03T10:47:35;102711.72;;;13.32;41.05
72285;BME280;60220;53.552;10.092;2023-05-03T10:50:25;102703.66;;;13.13;41.96
72285;BME280;60220;53.552;10.092;2023-05-03T10:52:52;102702.41;;;13.98;41.21
72285;BME280;60220;53.552;10.092;2023-05-03T10:55:21;102698.22;;;14.52;38.69
72285;BME280;60220;53.552;10.092;2023-05-03T10:57:52;102696.41;;;14.42;39.11
72285;BME280;60220;53.552;10.092;2023-05-03T11:00:23;102687.63;;;14.43;39.04
72285;BME280;60220;53.552;10.092;2023-05-03T11:03:10;102691.09;;;14.33;38.80
72285;BME280;60220;53.552;10.092;2023-05-03T11:05:38;102691.00;;;13.99;38.74
72285;BME280;60220;53.552;10.092;2023-05-03T11:08:12;102690.09;;;14.05;38.84
72285;BME280;60220;53.552;10.092;2023-05-03T11:10:39;102688.41;;;14.30;38.95
72285;BME280;60220;53.552;10.092;2023-05-03T11:13:06;102686.63;;;14.09;38.04
72285;BME280;60220;53.552;10.092;2023-05-03T11:15:33;102690.28;;;14.61;39.98
72285;BME280;60220;53.552;10.092;2023-05-03T11:18:04;102688.31;;;13.96;39.49
72285;BME280;60220;53.552;10.092;2023-05-03T11:20:31;102687.50;;;14.15;39.24
72285;BME280;60220;53.552;10.092;2023-05-03T11:22:58;102689.25;;;14.04;39.76
72285;BME280;60220;53.552;10.092;2023-05-03T11:25:25;102691.19;;;14.81;39.86
72285;BME280;60220;53.552;10.092;2023-05-03T11:27:52;102683.84;;;13.74;38.58
72285;BME280;60220;53.552;10.092;2023-05-03T11:30:19;102683.06;;;14.07;38.90
72285;BME280;60220;53.552;10.092;2023-05-03T11:32:46;102688.50;;;14.45;38.50
72285;BME280;60220;53.552;10.092;2023-05-03T11:35:15;102689.38;;;14.41;40.05
72285;BME280;60220;53.552;10.092;2023-05-03T11:37:42;102686.66;;;14.22;39.44
72285;BME280;60220;53.552;10.092;2023-05-03T11:40:13;102682.94;;;13.72;42.51
72285;BME280;60220;53.552;10.092;2023-05-03T11:42:50;102685.63;;;13.79;39.14
72285;BME280;60220;53.552;10.092;2023-05-03T11:45:18;102685.81;;;14.33;41.17
72285;BME280;60220;53.552;10.092;2023-05-03T11:47:46;102680.47;;;14.14;39.45
72285;BME280;60220;53.552;10.092;2023-05-03T11:50:12;102689.41;;;14.44;40.17
72285;BME280;60220;53.552;10.092;2023-05-03T11:52:41;102688.50;;;14.42;37.31
72285;BME280;60220;53.552;10.092;2023-05-03T11:55:08;102686.31;;;13.48;38.24
72285;BME280;60220;53.552;10.092;2023-05-03T11:57:35;102685.59;;;13.81;38.10
72285;BME280;60220;53.552;10.092;2023-05-03T12:00:09;102676.94;;;14.12;37.58
72285;BME280;60220;53.552;10.092;2023-05-03T12:02:38;102687.16;;;13.43;38.81
72285;BME280;60220;53.552;10.092;2023-05-03T12:05:06;102675.91;;;13.72;41.95
72285;BME280;60220;53.552;10.092;2023-05-03T12:07:36;102673.44;;;14.13;39.93
72285;BME280;60220;53.552;10.092;2023-05-03T12:10:17;102664.41;;;13.63;39.61
72285;BME280;60220;53.552;10.092;2023-05-03T12:12:54;102661.03;;;13.97;37.73
72285;BME280;60220;53.552;10.092;2023-05-03T12:15:31;102667.00;;;13.52;39.14
72285;BME280;60220;53.552;10.092;2023-05-03T12:17:58;102667.34;;;14.37;38.09
72285;BME280;60220;53.552;10.092;2023-05-03T12:20:27;102663.00;;;14.59;38.33
72285;BME280;60220;53.552;10.092;2023-05-03T12:22:59;102670.88;;;14.45;38.44
72285;BME280;60220;53.552;10.092;2023-05-03T12:25:28;102659.31;;;13.99;39.67
72285;BME280;60220;53.552;10.092;2023-05-03T12:28:00;102657.56;;;14.04;37.68
72285;BME280;60220;53.552;10.092;2023-05-03T12:30:28;102652.00;;;13.44;40.25
72285;BME280;60220;53.552;10.092;2023-05-03T12:32:54;102649.63;;;12.67;40.97
72285;BME280;60220;53.552;10.092;2023-05-03T12:35:21;102653.06;;;13.79;40.24
72285;BME280;60220;53.552;10.092;2023-05-03T12:37:49;102641.38;;;13.31;40.11
72285;BME280;60220;53.552;10.092;2023-05-03T12:40:17;102640.75;;;13.87;39.65
72285;BME280;60220;53.552;10.092;2023-05-03T12:42:48;102648.88;;;14.72;38.07
72285;BME280;60220;53.552;10.092;2023-05-03T12:45:15;102647.09;;;14.41;38.33
72285;BME280;60220;53.552;10.092;2023-05-03T12:47:42;102646.88;;;13.74;38.66
72285;BME280;60220;53.552;10.092;2023-05-03T12:50:09;102640.06;;;14.52;39.14
72285;BME280;60220;53.552;10.092;2023-05-03T12:52:36;102641.81;;;14.56;38.00
72285;BME280;60220;53.552;10.092;2023-05-03T12:55:06;102647.13;;;14.71;36.75